Time;durP1;ratioP1;P1;durP2;ratioP2;P2;SDS_P1;SDS_P2;PMS_P1;PMS_P2;Temp;Humidity;BMP_temperature;BMP_pressure;BME280_temperature;BME280_humidity;BME280_pressure;Samples;Min_cycle;Max_cycle;Signal;HPM_P1;HPM_P2
2022/06/12 00:00:27;;;;;;;13.07;4.38;;;17.90;99.90;;;;;;4966579;28;20027;-87
2022/06/12 00:02:54;;;;;;;6.15;4.10;;;17.90;99.90;;;;;;4966574;28;20087;-87
2022/06/12 00:05:24;;;;;;;12.13;3.85;;;17.80;99.90;;;;;;4970190;29;20024;-87
2022/06/12 00:07:50;;;;;;;6.65;4.10;;;17.80;99.90;;;;;;4965211;29;20043;-85
2022/06/12 00:10:17;;;;;;;8.43;4.65;;;17.80;99.90;;;;;;4965787;29;20030;-86
2022/06/12 00:12:45;;;;;;;7.35;3.97;;;17.70;99.90;;;;;;4966588;28;20043;-86
2022/06/12 00:15:14;;;;;;;8.75;4.30;;;17.70;99.90;;;;;;4966236;28;20038;-85
2022/06/12 00:17:41;;;;;;;10.18;4.55;;;17.70;99.90;;;;;;4963474;29;20062;-86
2022/06/12 00:20:09;;;;;;;10.48;5.30;;;17.70;99.90;;;;;;4964420;28;20083;-86
2022/06/12 00:22:35;;;;;;;14.60;6.10;;;17.60;99.90;;;;;;4966824;28;20031;-87
2022/06/12 00:25:01;;;;;;;13.27;7.43;;;17.60;99.90;;;;;;4973016;28;20029;-87
2022/06/12 00:27:27;;;;;;;19.35;10.20;;;17.60;99.90;;;;;;4977846;28;20035;-85
2022/06/12 00:29:52;;;;;;;17.33;9.13;;;17.50;99.90;;;;;;4978028;28;20043;-87
2022/06/12 00:32:18;;;;;;;21.98;10.30;;;17.50;99.90;;;;;;4975306;28;20035;-85
2022/06/12 00:34:50;;;;;;;30.48;14.50;;;17.40;99.90;;;;;;4966544;28;20015;-87
2022/06/12 00:37:18;;;;;;;28.50;12.23;;;17.30;99.90;;;;;;4965913;28;20035;-86
2022/06/12 00:39:46;;;;;;;13.90;6.65;;;17.30;99.90;;;;;;4965473;28;20027;-86
2022/06/12 00:42:32;;;;;;;8.75;5.47;;;17.30;99.90;;;;;;4965886;28;20494;-85
2022/06/12 00:45:20;;;;;;;10.63;5.55;;;17.20;99.90;;;;;;4963664;29;20034;-85
2022/06/12 00:47:46;;;;;;;8.40;4.70;;;17.10;99.90;;;;;;4965498;29;20055;-86
2022/06/12 00:50:13;;;;;;;6.72;4.57;;;17.10;99.90;;;;;;4966703;28;20495;-85
2022/06/12 00:52:46;;;;;;;12.18;4.57;;;17.00;99.90;;;;;;4968110;29;20046;-87
2022/06/12 00:55:24;;;;;;;13.75;7.25;;;16.90;99.90;;;;;;4980974;28;20546;-85
2022/06/12 00:57:52;;;;;;;11.07;6.03;;;16.90;99.90;;;;;;4975467;28;20050;-86
2022/06/12 01:00:18;;;;;;;7.78;4.57;;;16.90;99.90;;;;;;4968712;29;20038;-85
2022/06/12 01:02:44;;;;;;;10.43;5.07;;;16.80;99.90;;;;;;4978618;28;20031;-86
2022/06/12 01:08:02;;;;;;;8.85;4.53;;;16.80;99.90;;;;;;4981607;28;20038;-88
2022/06/12 01:10:29;;;;;;;8.18;4.63;;;16.80;99.90;;;;;;4981286;28;20016;-87
2022/06/12 01:12:59;;;;;;;8.45;4.78;;;16.70;99.90;;;;;;4981710;28;20055;-87
2022/06/12 01:15:37;;;;;;;8.50;4.53;;;16.70;99.90;;;;;;4981927;28;20034;-87
2022/06/12 01:18:09;;;;;;;7.18;4.38;;;16.60;99.90;;;;;;4970626;28;20091;-85
2022/06/12 01:20:43;;;;;;;6.45;4.43;;;16.60;99.90;;;;;;4970494;29;20039;-85
2022/06/12 01:23:24;;;;;;;8.02;4.25;;;16.60;99.90;;;;;;4970219;29;20051;-86
2022/06/12 01:26:22;;;;;;;8.60;4.60;;;16.60;99.90;;;;;;4968684;28;20047;-85
2022/06/12 01:29:00;;;;;;;7.22;4.43;;;16.60;99.90;;;;;;4950074;29;20030;-86
2022/06/12 01:31:29;;;;;;;6.40;4.38;;;16.60;99.90;;;;;;4967366;29;20032;-85
2022/06/12 01:34:21;;;;;;;10.13;4.55;;;16.50;99.90;;;;;;4950787;29;20046;-85
2022/06/12 01:37:06;;;;;;;6.80;4.28;;;16.50;99.90;;;;;;4966277;29;20400;-85
2022/06/12 01:39:38;;;;;;;8.63;4.33;;;16.50;99.90;;;;;;4968173;28;20034;-86
2022/06/12 01:42:19;;;;;;;8.65;4.60;;;16.50;99.90;;;;;;4967959;28;20023;-86
2022/06/12 01:45:13;;;;;;;9.85;4.18;;;16.40;99.90;;;;;;4968203;28;20095;-85
2022/06/12 01:47:42;;;;;;;16.20;4.65;;;16.40;99.90;;;;;;4978012;28;20106;-86
2022/06/12 01:50:32;;;;;;;10.32;4.53;;;16.40;99.90;;;;;;4971154;28;20019;-87
2022/06/12 01:53:23;;;;;;;4.65;4.13;;;16.40;99.90;;;;;;4972505;28;20066;-85
2022/06/12 01:56:15;;;;;;;8.00;4.35;;;16.30;99.90;;;;;;4971052;28;20023;-85
2022/06/12 01:59:13;;;;;;;8.70;4.85;;;16.40;99.90;;;;;;4968434;29;20046;-87
2022/06/12 02:01:49;;;;;;;6.80;4.40;;;16.30;99.90;;;;;;4955188;28;20073;-87
2022/06/12 02:04:31;;;;;;;6.93;3.97;;;16.40;99.90;;;;;;4979044;28;20019;-85
2022/06/12 02:07:05;;;;;;;11.90;4.85;;;16.30;99.90;;;;;;4979646;28;20042;-89
2022/06/12 02:10:13;;;;;;;11.27;4.78;;;16.30;99.90;;;;;;4975698;28;20091;-87
2022/06/12 02:15:39;;;;;;;8.77;4.40;;;16.30;99.90;;;;;;4973184;28;20069;-86
2022/06/12 02:18:05;;;;;;;;;;;16.30;99.90;;;;;;4974468;28;20027;-87
2022/06/12 02:20:36;;;;;;;10.18;5.00;;;16.20;99.90;;;;;;4979952;28;19917;-84
2022/06/12 02:23:10;;;;;;;9.20;4.70;;;16.20;99.90;;;;;;4980562;28;20030;-85
2022/06/12 02:25:40;;;;;;;10.38;5.30;;;16.20;99.90;;;;;;4978701;28;20046;-87
2022/06/12 02:28:11;;;;;;;9.65;4.90;;;16.20;99.90;;;;;;4979571;28;20040;-86
2022/06/12 02:30:43;;;;;;;7.55;4.45;;;16.20;99.90;;;;;;4980351;28;20027;-86
2022/06/12 02:33:20;;;;;;;7.20;4.40;;;16.20;99.90;;;;;;4981136;28;20035;-88
2022/06/12 02:35:56;;;;;;;6.93;4.32;;;16.20;99.90;;;;;;4980306;28;20031;-86
2022/06/12 02:38:35;;;;;;;5.85;3.85;;;16.20;99.90;;;;;;4978778;28;20054;-85
2022/06/12 02:41:30;;;;;;;8.30;4.80;;;16.20;99.90;;;;;;4977879;28;20051;-85
2022/06/12 02:44:01;;;;;;;18.45;4.63;;;16.10;99.90;;;;;;4976186;29;20066;-86
2022/06/12 02:46:40;;;;;;;7.25;4.50;;;16.10;99.90;;;;;;4978705;28;20066;-85
2022/06/12 02:49:09;;;;;;;6.63;4.53;;;16.10;99.90;;;;;;4979359;28;20044;-86
2022/06/12 02:55:18;;;;;;;9.75;4.78;;;16.10;99.90;;;;;;4993463;28;20119;-88
2022/06/12 02:58:48;;;;;;;12.75;4.82;;;16.10;99.90;;;;;;4966700;29;20049;-88
2022/06/12 03:02:16;;;;;;;11.90;4.93;;;16.00;99.90;;;;;;4953894;28;20042;-87
2022/06/12 03:08:58;;;;;;;8.05;4.72;;;16.00;99.90;;;;;;4971935;28;20047;-88
2022/06/12 03:12:16;;;;;;;6.90;4.88;;;16.00;99.90;;;;;;4985860;28;20027;-88
2022/06/12 03:15:33;;;;;;;13.55;5.38;;;16.00;99.90;;;;;;4941739;28;20035;-88
2022/06/12 03:19:13;;;;;;;8.77;5.05;;;16.00;99.90;;;;;;4925810;28;20066;-88
2022/06/12 03:21:56;;;;;;;;;;;;;;;;;;;;;
2022/06/12 03:25:43;;;;;;;8.35;4.85;;;16.00;99.90;;;;;;4991056;28;20101;-88
2022/06/12 03:28:46;;;;;;;9.68;5.47;;;16.00;99.90;;;;;;4964179;28;20034;-87
2022/06/12 03:32:01;;;;;;;8.43;5.32;;;16.10;99.90;;;;;;4983295;28;20043;-87
2022/06/12 03:35:09;;;;;;;11.50;5.82;;;16.10;99.90;;;;;;4978157;28;20023;-86
2022/06/12 03:38:34;;;;;;;6.78;5.05;;;16.10;99.90;;;;;;4999112;28;20023;-87
2022/06/12 03:45:45;;;;;;;;;;;;;;;;;;;;;
2022/06/12 03:49:20;;;;;;;7.55;5.43;;;16.20;99.90;;;;;;4997433;28;20066;-86
2022/06/12 04:00:19;;;;;;;12.73;5.22;;;16.40;99.90;;;;;;4998115;28;20054;-86
2022/06/12 04:03:38;;;;;;;9.68;5.72;;;16.50;99.90;;;;;;4997530;28;20133;-84
2022/06/12 04:10:44;;;;;;;7.13;5.22;;;16.60;99.90;;;;;;4949336;29;20017;-86
2022/06/12 04:19:09;;;;;;;8.57;5.45;;;16.90;99.90;;;;;;4734369;23;20047;-87
2022/06/12 04:22:22;;;;;;;10.63;5.28;;;17.00;99.90;;;;;;4891737;29;20081;-86
2022/06/12 04:25:30;;;;;;;7.20;5.00;;;17.10;99.90;;;;;;4932679;28;20063;-88
2022/06/12 04:29:18;;;;;;;7.97;5.18;;;17.20;99.90;;;;;;4970471;29;20110;-88
2022/06/12 04:35:47;;;;;;;8.70;5.25;;;17.50;99.90;;;;;;4877730;29;20070;-87
2022/06/12 04:39:16;;;;;;;10.80;4.82;;;17.60;99.90;;;;;;4867901;29;20037;-86
2022/06/12 04:42:33;;;;;;;7.82;4.70;;;17.70;99.90;;;;;;4935172;28;20074;-88
2022/06/12 04:46:01;;;;;;;7.00;4.60;;;17.90;99.90;;;;;;4971592;29;20043;-87
2022/06/12 04:49:05;;;;;;;9.60;5.22;;;18.00;99.90;;;;;;4974067;29;20023;-87
2022/06/12 04:52:00;;;;;;;6.70;4.38;;;18.50;99.90;;;;;;4980549;28;20055;-88
2022/06/12 04:55:34;;;;;;;6.60;3.70;;;19.30;99.90;;;;;;4970228;29;20043;-89
2022/06/12 04:58:51;;;;;;;4.70;3.67;;;19.90;99.90;;;;;;4969187;29;20059;-88
2022/06/12 05:01:27;;;;;;;8.32;4.65;;;20.00;99.90;;;;;;4970932;29;20123;-88
2022/06/12 05:07:57;;;;;;;6.97;4.50;;;19.70;99.90;;;;;;4884237;29;20056;-85
2022/06/12 05:21:14;;;;;;;;;;;;;;;;;;;;;
2022/06/12 05:24:18;;;;;;;6.05;4.32;;;19.60;99.90;;;;;;4970729;28;20042;-88
2022/06/12 05:27:36;;;;;;;11.88;4.07;;;19.80;99.90;;;;;;4948575;29;20126;-88
2022/06/12 05:30:34;;;;;;;9.05;4.35;;;19.90;99.90;;;;;;4917594;29;20032;-90
2022/06/12 05:33:49;;;;;;;12.63;5.03;;;20.10;99.90;;;;;;4934007;29;20051;-89
2022/06/12 05:36:28;;;;;;;8.93;3.90;;;20.30;99.90;;;;;;4940713;28;20135;-87
2022/06/12 05:38:57;;;;;;;6.68;4.13;;;20.40;99.90;;;;;;4967994;29;20035;-88
2022/06/12 05:41:51;;;;;;;5.82;3.47;;;20.50;99.90;;;;;;4951602;29;20404;-88
2022/06/12 05:44:34;;;;;;;9.23;4.00;;;20.60;99.90;;;;;;4952968;29;20027;-89
2022/06/12 05:54:29;;;;;;;4.18;3.10;;;21.10;99.90;;;;;;4968722;29;20039;-90
2022/06/12 05:57:27;;;;;;;8.38;3.28;;;21.10;99.90;;;;;;4969015;29;20050;-89
2022/06/12 06:00:42;;;;;;;9.52;3.42;;;21.30;99.90;;;;;;4969392;29;20035;-88
2022/06/12 06:03:54;;;;;;;6.55;3.05;;;21.40;99.90;;;;;;4971904;28;20054;-90
2022/06/12 06:06:52;;;;;;;8.48;3.47;;;21.40;99.90;;;;;;4960890;28;20046;-88
2022/06/12 06:09:54;;;;;;;3.63;3.05;;;21.50;99.90;;;;;;4980180;28;20015;-86
2022/06/12 06:16:07;;;;;;;11.15;5.32;;;22.10;99.90;;;;;;4163165;26;20066;-87
2022/06/12 06:19:23;;;;;;;;;;;;;;;;;;;;;
2022/06/12 06:22:27;;;;;;;6.63;3.00;;;22.20;99.90;;;;;;4982100;28;20046;-86
2022/06/12 06:25:43;;;;;;;5.13;3.22;;;22.40;99.90;;;;;;4959104;28;20023;-88
2022/06/12 06:28:46;;;;;;;6.45;2.95;;;22.60;99.90;;;;;;4940753;28;20099;-87
2022/06/12 06:31:45;;;;;;;5.90;2.75;;;22.80;99.90;;;;;;4979487;28;20078;-85
2022/06/12 06:34:48;;;;;;;3.40;2.72;;;23.00;99.90;;;;;;4963663;28;20023;-87
2022/06/12 06:41:03;;;;;;;3.97;2.50;;;22.90;99.90;;;;;;4979442;28;20114;-85
2022/06/12 06:50:47;;;;;;;10.73;2.97;;;23.30;99.90;;;;;;4966815;28;20059;-86
2022/06/12 06:53:40;;;;;;;5.88;2.60;;;23.30;99.90;;;;;;4961814;28;20032;-87
2022/06/12 06:56:34;;;;;;;4.47;3.03;;;23.50;99.90;;;;;;4964002;28;20024;-86
2022/06/12 06:59:26;;;;;;;11.43;3.38;;;23.70;99.90;;;;;;4978952;28;20039;-88
2022/06/12 07:02:14;;;;;;;;;;;;;;;;;;;;;
2022/06/12 07:05:53;;;;;;;;;;;;;;;;;;;;;
2022/06/12 07:08:49;;;;;;;9.88;3.25;;;23.90;99.90;;;;;;4978072;28;20041;-87
2022/06/12 07:15:50;;;;;;;4.40;3.30;;;24.00;99.90;;;;;;4979290;28;20119;-87
2022/06/12 07:18:52;;;;;;;4.82;2.70;;;24.00;99.90;;;;;;4978639;28;20022;-87
2022/06/12 07:21:48;;;;;;;3.45;2.60;;;24.10;99.90;;;;;;4978860;28;20103;-88
2022/06/12 07:24:26;;;;;;;6.22;2.47;;;24.30;99.60;;;;;;4978525;28;20027;-86
2022/06/12 07:27:03;;;;;;;5.78;2.40;;;24.40;98.80;;;;;;4962678;28;20020;-87
2022/06/12 07:29:32;;;;;;;5.18;2.20;;;24.50;98.40;;;;;;4962695;28;20023;-89
2022/06/12 07:31:59;;;;;;;4.30;2.45;;;24.60;97.90;;;;;;4962414;28;20015;-88
2022/06/12 07:34:39;;;;;;;3.05;2.33;;;24.60;97.40;;;;;;4963938;28;20027;-87
2022/06/12 07:37:09;;;;;;;4.47;2.20;;;24.60;97.50;;;;;;4962761;28;20090;-88
2022/06/12 07:39:41;;;;;;;3.50;2.10;;;24.60;97.30;;;;;;4978575;28;20086;-87
2022/06/12 07:42:17;;;;;;;3.25;2.28;;;24.50;97.50;;;;;;4963147;28;20031;-87
2022/06/12 07:44:47;;;;;;;3.50;2.17;;;24.60;97.20;;;;;;4977991;28;20028;-86
2022/06/12 07:47:28;;;;;;;5.55;2.85;;;24.40;97.00;;;;;;5135818;23;20137;-89
2022/06/12 07:50:31;;;;;;;8.18;3.80;;;24.40;96.80;;;;;;4963199;28;20038;-89
2022/06/12 07:53:00;;;;;;;5.47;2.75;;;24.40;96.30;;;;;;4973380;28;20023;-88
2022/06/12 07:55:35;;;;;;;8.95;2.70;;;24.40;95.70;;;;;;4961998;28;20027;-88
2022/06/12 07:58:07;;;;;;;;;;;24.50;95.30;;;;;;4962466;28;20078;-87
2022/06/12 08:00:48;;;;;;;4.97;2.22;;;24.50;95.10;;;;;;4962695;28;19921;-87
2022/06/12 08:03:14;;;;;;;6.97;2.45;;;24.50;95.40;;;;;;4966224;28;20086;-88
2022/06/12 08:05:59;;;;;;;3.33;2.20;;;24.40;94.30;;;;;;4965037;28;20027;-88
2022/06/12 08:08:49;;;;;;;6.90;3.00;;;24.50;95.10;;;;;;4981867;28;20023;-88
2022/06/12 08:11:15;;;;;;;7.18;2.42;;;24.40;95.00;;;;;;4965553;28;20046;-88
2022/06/12 08:13:44;;;;;;;3.30;2.30;;;24.40;93.90;;;;;;4977024;29;20027;-88
2022/06/12 08:16:11;;;;;;;5.50;2.45;;;24.50;94.90;;;;;;4962706;28;20050;-89
2022/06/12 08:18:46;;;;;;;4.18;2.00;;;24.60;94.20;;;;;;4966007;28;20016;-87
2022/06/12 08:21:14;;;;;;;6.43;2.33;;;24.70;94.40;;;;;;4982219;28;20027;-89
2022/06/12 08:23:56;;;;;;;4.35;2.00;;;24.80;94.60;;;;;;4965566;28;20023;-88
2022/06/12 08:26:30;;;;;;;3.47;2.50;;;25.00;94.80;;;;;;4965556;28;20053;-88
2022/06/12 08:29:03;;;;;;;4.18;2.47;;;25.10;94.70;;;;;;4981575;28;20039;-86
2022/06/12 08:31:44;;;;;;;6.78;2.65;;;25.10;95.10;;;;;;4981623;28;20099;-87
2022/06/12 08:34:38;;;;;;;8.40;2.40;;;25.00;94.50;;;;;;4981428;28;20019;-86
2022/06/12 08:37:10;;;;;;;4.85;2.15;;;24.90;95.10;;;;;;4981499;28;20042;-89
2022/06/12 08:39:37;;;;;;;4.38;2.03;;;25.00;95.20;;;;;;4965344;28;20023;-88
2022/06/12 08:42:25;;;;;;;5.90;2.65;;;25.00;94.70;;;;;;4981216;28;20042;-89
2022/06/12 08:45:17;;;;;;;7.85;2.35;;;25.00;94.90;;;;;;4979553;28;20077;-87
2022/06/12 08:48:09;;;;;;;8.70;2.22;;;25.00;93.70;;;;;;4977916;28;20030;-89
2022/06/12 08:51:17;;;;;;;4.55;1.90;;;25.10;94.00;;;;;;4980333;28;20095;-87
2022/06/12 08:54:04;;;;;;;2.22;2.00;;;25.20;94.10;;;;;;4974760;23;20047;-86
2022/06/12 08:56:58;;;;;;;6.40;2.75;;;25.30;94.30;;;;;;4972591;29;20023;-87
2022/06/12 08:59:34;;;;;;;5.30;2.13;;;25.30;94.10;;;;;;4953906;29;20098;-87
2022/06/12 09:02:12;;;;;;;3.05;2.20;;;25.30;94.00;;;;;;4978958;28;20077;-87
2022/06/12 09:04:38;;;;;;;5.55;2.20;;;25.40;94.10;;;;;;4950277;29;20031;-87
2022/06/12 09:07:17;;;;;;;2.95;2.30;;;25.40;93.60;;;;;;4964770;29;20027;-87
2022/06/12 09:09:47;;;;;;;4.82;2.20;;;25.60;93.60;;;;;;4968369;29;20534;-87
2022/06/12 09:12:30;;;;;;;3.85;2.40;;;25.60;93.40;;;;;;4970598;28;20550;-85
2022/06/12 09:15:17;;;;;;;5.43;2.10;;;25.70;92.60;;;;;;4970536;29;20035;-87
2022/06/12 09:17:59;;;;;;;10.05;2.22;;;25.70;92.90;;;;;;4970206;28;20031;-88
2022/06/12 09:20:47;;;;;;;5.30;2.65;;;25.70;92.90;;;;;;4970220;28;20137;-86
2022/06/12 09:23:32;;;;;;;5.90;2.20;;;25.70;92.20;;;;;;4971476;29;20051;-88
2022/06/12 09:26:17;;;;;;;6.43;2.20;;;25.70;92.20;;;;;;4959036;28;20011;-87
2022/06/12 09:28:43;;;;;;;;;;;25.70;91.50;;;;;;4974321;28;20175;-88
2022/06/12 09:31:14;;;;;;;3.10;2.10;;;25.80;90.90;;;;;;4949046;29;19906;-87
2022/06/12 09:33:52;;;;;;;2.10;1.90;;;25.90;90.50;;;;;;4948773;29;20046;-88
2022/06/12 09:36:28;;;;;;;5.53;2.10;;;25.90;90.70;;;;;;4975849;28;20308;-88
2022/06/12 09:39:06;;;;;;;2.78;2.00;;;26.00;90.40;;;;;;4980196;28;20066;-89
2022/06/12 09:41:50;;;;;;;3.90;2.30;;;26.10;90.10;;;;;;4980472;28;20038;-88
2022/06/12 09:44:18;;;;;;;3.93;1.97;;;26.20;91.10;;;;;;4979247;28;20020;-86
2022/06/12 09:47:07;;;;;;;3.42;2.10;;;26.50;90.30;;;;;;4980134;28;20046;-86
2022/06/12 09:49:38;;;;;;;5.32;2.10;;;26.90;88.80;;;;;;4980700;28;20027;-87
2022/06/12 09:52:33;;;;;;;4.18;1.77;;;27.30;87.80;;;;;;4977194;29;20031;-89
2022/06/12 09:55:05;;;;;;;3.72;1.70;;;27.90;85.70;;;;;;4974496;28;20074;-89
2022/06/12 09:57:53;;;;;;;4.47;1.83;;;28.90;84.10;;;;;;4979124;28;20023;-88
2022/06/12 10:00:27;;;;;;;7.55;1.92;;;29.70;83.60;;;;;;4978726;28;20111;-88
2022/06/12 10:02:59;;;;;;;2.80;1.50;;;30.20;80.30;;;;;;4979930;28;20047;-86
2022/06/12 10:05:38;;;;;;;4.88;2.47;;;30.80;78.10;;;;;;4963292;28;20038;-88
2022/06/12 10:08:07;;;;;;;1.70;1.60;;;31.80;78.20;;;;;;4980799;28;20073;-87
2022/06/12 10:11:09;;;;;;;4.13;2.00;;;32.40;76.40;;;;;;4980171;28;20071;-88
2022/06/12 10:14:03;;;;;;;2.75;1.80;;;33.80;72.80;;;;;;4955610;28;20051;-86
2022/06/12 10:16:33;;;;;;;;;;;34.50;70.80;;;;;;4961900;28;20026;-89
2022/06/12 10:19:11;;;;;;;2.70;1.50;;;34.70;67.50;;;;;;4969396;28;19938;-86
2022/06/12 10:21:39;;;;;;;4.28;1.48;;;35.00;66.00;;;;;;4965252;29;20069;-85
2022/06/12 10:24:07;;;;;;;3.90;1.60;;;35.20;65.60;;;;;;4948473;29;20472;-88
2022/06/12 10:26:34;;;;;;;10.15;1.85;;;35.10;64.10;;;;;;4966311;29;20038;-87
2022/06/12 10:29:06;;;;;;;4.25;1.52;;;35.70;63.50;;;;;;4964225;28;20507;-86
2022/06/12 10:31:34;;;;;;;3.67;1.60;;;36.70;61.60;;;;;;4965223;29;20107;-87
2022/06/12 10:34:22;;;;;;;11.68;1.70;;;38.30;58.90;;;;;;4966038;29;20031;-86
2022/06/12 10:36:48;;;;;;;2.78;1.50;;;39.60;56.60;;;;;;4978895;28;20030;-89
2022/06/12 10:39:20;;;;;;;5.03;1.42;;;39.80;54.80;;;;;;4963891;28;20031;-89
2022/06/12 10:41:57;;;;;;;3.45;1.83;;;40.50;53.40;;;;;;4980016;28;20055;-86
2022/06/12 10:44:37;;;;;;;1.85;1.30;;;40.90;53.60;;;;;;4980326;28;20019;-87
2022/06/12 10:47:08;;;;;;;5.50;1.83;;;41.20;50.80;;;;;;4969517;29;20039;-86
2022/06/12 10:49:34;;;;;;;3.38;1.33;;;41.50;50.10;;;;;;4970583;29;20031;-87
2022/06/12 10:52:06;;;;;;;3.35;1.30;;;41.70;49.50;;;;;;4978927;28;20051;-88
2022/06/12 10:54:32;;;;;;;3.22;1.33;;;42.20;48.10;;;;;;4978374;28;20035;-86
2022/06/12 10:57:15;;;;;;;2.90;1.38;;;41.90;48.80;;;;;;4978744;28;20087;-88
2022/06/12 10:59:53;;;;;;;4.15;1.58;;;42.70;49.00;;;;;;4978757;28;20042;-87
2022/06/12 11:02:38;;;;;;;1.98;1.27;;;42.80;48.10;;;;;;4975773;29;20046;-87
2022/06/12 11:05:44;;;;;;;3.45;1.50;;;42.60;48.20;;;;;;4971708;29;20035;-86
2022/06/12 11:08:22;;;;;;;2.88;1.60;;;43.20;47.70;;;;;;4969159;29;20069;-88
2022/06/12 11:11:15;;;;;;;3.28;1.63;;;43.20;47.20;;;;;;4975045;29;20023;-87
2022/06/12 11:13:53;;;;;;;5.28;1.90;;;43.40;46.90;;;;;;4978768;28;20091;-87
2022/06/12 11:16:28;;;;;;;3.85;1.45;;;43.40;47.20;;;;;;4979066;28;20027;-89
2022/06/12 11:19:15;;;;;;;3.58;1.40;;;43.10;47.60;;;;;;4977167;29;20042;-88
2022/06/12 11:22:09;;;;;;;1.92;1.60;;;43.80;46.40;;;;;;4977215;29;20111;-87
2022/06/12 11:24:48;;;;;;;4.90;1.77;;;43.70;46.50;;;;;;4977001;28;20038;-88
2022/06/12 11:27:33;;;;;;;3.10;1.50;;;43.40;46.50;;;;;;4979947;28;20023;-90
2022/06/12 11:30:25;;;;;;;8.80;1.55;;;43.70;46.60;;;;;;4978953;28;20027;-87
2022/06/12 11:33:41;;;;;;;3.67;1.50;;;43.30;46.80;;;;;;4979421;28;20061;-87
2022/06/12 11:36:25;;;;;;;3.30;1.63;;;43.20;46.50;;;;;;4978846;28;20047;-88
2022/06/12 11:39:06;;;;;;;3.22;1.63;;;44.10;46.40;;;;;;4979454;28;20046;-89
2022/06/12 11:41:51;;;;;;;2.67;1.60;;;44.20;46.20;;;;;;4979281;28;20030;-89
2022/06/12 11:44:37;;;;;;;2.55;1.42;;;44.50;45.90;;;;;;4977824;28;20093;-89
2022/06/12 11:47:28;;;;;;;5.10;1.92;;;44.70;45.30;;;;;;4978715;28;20051;-89
2022/06/12 11:50:00;;;;;;;2.10;1.58;;;44.80;45.10;;;;;;4977867;28;20043;-87
2022/06/12 11:52:45;;;;;;;4.25;1.98;;;44.60;45.10;;;;;;4973310;28;20051;-87
2022/06/12 11:55:36;;;;;;;2.10;1.45;;;43.40;45.70;;;;;;4960422;28;20039;-87
2022/06/12 11:58:17;;;;;;;2.05;1.40;;;43.50;45.10;;;;;;4977352;29;20035;-87
2022/06/12 12:01:16;;;;;;;2.67;1.30;;;43.30;45.50;;;;;;4976478;29;20039;-86
2022/06/12 12:04:10;;;;;;;1.63;1.40;;;43.50;45.30;;;;;;5051630;23;20067;-86
2022/06/12 12:06:54;;;;;;;3.42;1.40;;;44.20;44.90;;;;;;4979232;28;20047;-87
2022/06/12 12:09:29;;;;;;;2.88;1.40;;;44.60;44.80;;;;;;4961970;28;20043;-88
2022/06/12 12:12:05;;;;;;;4.85;1.48;;;44.50;44.50;;;;;;4974817;29;20023;-87
2022/06/12 12:14:37;;;;;;;2.80;1.50;;;44.40;44.40;;;;;;4976802;28;20050;-88
2022/06/12 12:17:23;;;;;;;2.45;1.40;;;44.40;44.50;;;;;;4973594;29;20039;-88
2022/06/12 12:20:04;;;;;;;2.28;1.52;;;44.80;43.70;;;;;;4948213;29;20108;-88
2022/06/12 12:23:03;;;;;;;3.78;1.40;;;44.60;43.90;;;;;;4961636;29;20067;-86
2022/06/12 12:25:59;;;;;;;2.58;1.60;;;43.90;44.00;;;;;;4949326;29;20067;-87
2022/06/12 12:28:36;;;;;;;2.47;1.38;;;44.00;43.60;;;;;;4945202;29;20476;-87
2022/06/12 12:31:06;;;;;;;2.83;1.40;;;44.70;43.60;;;;;;4962915;28;20046;-86
2022/06/12 12:33:33;;;;;;;3.80;1.50;;;45.10;43.30;;;;;;4963278;28;20027;-86
2022/06/12 12:41:45;;;;;;;4.07;1.27;;;44.90;42.10;;;;;;4970960;29;20070;-88
2022/06/12 12:44:14;;;;;;;2.92;1.33;;;45.10;41.40;;;;;;4977994;28;20134;-87
2022/06/12 12:46:47;;;;;;;1.85;1.30;;;44.30;42.30;;;;;;4953021;29;20055;-88
2022/06/12 12:49:26;;;;;;;3.28;1.25;;;44.70;42.40;;;;;;4968718;28;20034;-87
2022/06/12 12:52:08;;;;;;;2.05;1.10;;;45.00;42.30;;;;;;4969872;29;20389;-87
2022/06/12 12:54:44;;;;;;;1.40;1.00;;;45.40;41.60;;;;;;4969589;29;20070;-88
2022/06/12 12:57:12;;;;;;;3.42;1.40;;;45.50;41.80;;;;;;4971511;28;20580;-87
2022/06/12 12:59:50;;;;;;;2.20;1.20;;;45.30;41.50;;;;;;4962889;29;20038;-88
2022/06/12 13:02:29;;;;;;;2.97;1.20;;;45.20;41.20;;;;;;4979856;28;20046;-89
2022/06/12 13:05:11;;;;;;;2.67;1.27;;;45.10;40.90;;;;;;4980936;28;20051;-88
2022/06/12 13:07:51;;;;;;;5.65;1.50;;;44.80;41.30;;;;;;4981015;28;20039;-87
2022/06/12 13:10:35;;;;;;;1.95;1.33;;;44.70;41.10;;;;;;4980160;28;20020;-86
2022/06/12 13:13:22;;;;;;;2.38;1.30;;;45.00;40.70;;;;;;4980286;28;20574;-87
2022/06/12 13:16:03;;;;;;;3.95;1.38;;;44.90;40.90;;;;;;4977918;29;20035;-88
2022/06/12 13:18:51;;;;;;;2.58;1.42;;;44.30;41.20;;;;;;4980746;28;20059;-86
2022/06/12 13:21:36;;;;;;;3.90;1.23;;;44.40;41.70;;;;;;4981695;28;20039;-89
2022/06/12 13:24:10;;;;;;;2.92;1.23;;;44.40;41.10;;;;;;4980834;28;20060;-88
2022/06/12 13:26:41;;;;;;;2.63;1.33;;;44.60;41.00;;;;;;4981613;28;20087;-88
2022/06/12 13:29:32;;;;;;;3.95;1.15;;;44.60;41.20;;;;;;4981481;28;20071;-88
2022/06/12 13:32:05;;;;;;;1.65;1.23;;;44.50;41.30;;;;;;4980443;28;20351;-88
2022/06/12 13:34:31;;;;;;;5.23;1.60;;;44.70;41.30;;;;;;4980446;28;20023;-87
2022/06/12 13:36:58;;;;;;;1.88;1.20;;;44.60;41.70;;;;;;4981341;28;20050;-88
2022/06/12 13:39:25;;;;;;;1.88;1.20;;;44.50;40.90;;;;;;4980296;28;20027;-89
2022/06/12 13:42:13;;;;;;;2.35;1.30;;;44.10;41.30;;;;;;4978755;28;20043;-87
2022/06/12 13:44:41;;;;;;;5.10;1.60;;;44.20;41.40;;;;;;4971067;29;20034;-87
2022/06/12 13:47:36;;;;;;;2.95;1.25;;;44.30;41.10;;;;;;4968916;28;20042;-88
2022/06/12 13:50:17;;;;;;;5.00;1.67;;;44.00;41.30;;;;;;4966918;29;20058;-87
2022/06/12 13:52:54;;;;;;;3.15;1.40;;;44.10;41.40;;;;;;4979259;28;20027;-87
2022/06/12 13:55:22;;;;;;;3.13;1.60;;;44.20;41.30;;;;;;4980897;28;20114;-88
2022/06/12 13:57:50;;;;;;;7.35;1.45;;;44.30;41.60;;;;;;4980469;28;20012;-86
2022/06/12 14:00:34;;;;;;;2.15;1.40;;;44.40;41.40;;;;;;4980916;28;20051;-89
2022/06/12 14:03:00;;;;;;;1.98;1.30;;;44.10;41.60;;;;;;4979635;28;20046;-88
2022/06/12 14:05:33;;;;;;;2.47;1.50;;;43.90;41.50;;;;;;4980626;28;20083;-89
2022/06/12 14:08:03;;;;;;;3.27;1.47;;;43.60;41.80;;;;;;4980590;28;20030;-89
2022/06/12 14:10:40;;;;;;;2.22;1.45;;;43.90;41.30;;;;;;4962628;28;20027;-87
2022/06/12 14:13:13;;;;;;;5.85;1.88;;;43.70;41.80;;;;;;4970820;28;20031;-86
2022/06/12 14:15:41;;;;;;;3.05;1.50;;;44.00;41.70;;;;;;4975491;28;20067;-88
2022/06/12 14:18:26;;;;;;;5.03;1.65;;;44.00;41.50;;;;;;4966142;29;20024;-87
2022/06/12 14:21:18;;;;;;;2.72;1.33;;;43.80;41.40;;;;;;4964693;29;20039;-88
2022/06/12 14:23:50;;;;;;;2.97;1.30;;;43.80;41.50;;;;;;4966720;28;20051;-87
2022/06/12 14:26:36;;;;;;;2.47;1.50;;;43.80;41.40;;;;;;4966774;28;20046;-86
2022/06/12 14:29:34;;;;;;;3.95;1.60;;;44.00;41.50;;;;;;4967379;29;20032;-87
2022/06/12 14:32:16;;;;;;;3.35;1.60;;;43.70;41.80;;;;;;4967728;29;20046;-86
2022/06/12 14:34:45;;;;;;;3.40;1.50;;;43.40;41.80;;;;;;4971205;29;20035;-87
2022/06/12 14:37:30;;;;;;;2.63;1.65;;;43.30;41.90;;;;;;4979487;28;20011;-88
2022/06/12 14:39:56;;;;;;;1.83;1.40;;;43.10;42.30;;;;;;4979807;28;20042;-87
2022/06/12 14:42:23;;;;;;;2.72;1.30;;;42.30;43.00;;;;;;4979927;28;20027;-88
2022/06/12 14:44:49;;;;;;;4.18;1.40;;;42.50;43.10;;;;;;4979553;28;20021;-89
2022/06/12 14:47:19;;;;;;;2.50;1.48;;;42.60;42.80;;;;;;4975663;28;20032;-86
2022/06/12 14:49:48;;;;;;;2.63;1.30;;;42.60;42.40;;;;;;4967546;28;20118;-88
2022/06/12 14:52:15;;;;;;;4.65;1.48;;;42.00;42.80;;;;;;4987703;23;20050;-85
2022/06/12 14:54:42;;;;;;;4.57;1.20;;;42.00;42.90;;;;;;4966771;29;20027;-85
2022/06/12 14:57:13;;;;;;;1.40;1.30;;;41.70;43.00;;;;;;4956196;29;20027;-83
2022/06/12 14:59:40;;;;;;;4.80;1.60;;;41.70;43.00;;;;;;4979314;28;20070;-83
2022/06/12 15:02:19;;;;;;;5.32;1.63;;;41.50;42.90;;;;;;4978371;28;20039;-83
2022/06/12 15:04:46;;;;;;;2.67;1.48;;;41.70;43.00;;;;;;4974915;28;20098;-84
2022/06/12 15:07:12;;;;;;;2.78;1.52;;;42.00;43.20;;;;;;4969856;29;20027;-84
2022/06/12 15:09:38;;;;;;;5.75;1.50;;;42.10;43.40;;;;;;4949111;29;20044;-87
2022/06/12 15:12:04;;;;;;;2.20;1.42;;;41.80;43.80;;;;;;4966313;28;20110;-84
2022/06/12 15:14:31;;;;;;;3.42;1.40;;;41.60;43.70;;;;;;4965029;29;20095;-84
2022/06/12 15:16:58;;;;;;;3.05;1.40;;;41.50;43.60;;;;;;4966050;28;20035;-84
2022/06/12 15:19:25;;;;;;;3.42;1.30;;;41.70;43.50;;;;;;4964612;29;20070;-86
2022/06/12 15:21:51;;;;;;;2.80;1.50;;;41.70;43.20;;;;;;4964699;29;20035;-86
2022/06/12 15:24:20;;;;;;;1.90;1.40;;;41.30;43.50;;;;;;4965783;29;20062;-86
2022/06/12 15:29:46;;;;;;;3.30;1.30;;;41.20;44.00;;;;;;4964226;29;20118;-86
2022/06/12 15:32:30;;;;;;;4.03;1.83;;;41.10;43.90;;;;;;4967361;28;20035;-85
2022/06/12 15:34:58;;;;;;;4.10;1.40;;;40.60;44.30;;;;;;4966149;29;20094;-87
2022/06/12 15:37:26;;;;;;;1.80;1.40;;;40.30;44.30;;;;;;4968401;29;20078;-86
2022/06/12 15:39:52;;;;;;;2.42;1.45;;;40.30;44.20;;;;;;4965529;29;20030;-86